sensor_id;sensor_type;location;lat;lon;timestamp;P1;durP1;ratioP1;P2;durP2;ratioP2
54795;SDS011;40693;43.884;20.340;2023-06-05T00:01:46;7.82;;;6.45;;
54795;SDS011;40693;43.884;20.340;2023-06-05T00:04:12;10.02;;;6.47;;
54795;SDS011;40693;43.884;20.340;2023-06-05T00:06:37;8.57;;;6.75;;
54795;SDS011;40693;43.884;20.340;2023-06-05T00:09:04;10.57;;;6.60;;
54795;SDS011;40693;43.884;20.340;2023-06-05T00:11:30;9.13;;;6.40;;
54795;SDS011;40693;43.884;20.340;2023-06-05T00:13:56;8.50;;;6.20;;
54795;SDS011;40693;43.884;20.340;2023-06-05T00:16:22;8.30;;;6.72;;
54795;SDS011;40693;43.884;20.340;2023-06-05T00:18:48;9.57;;;6.38;;
54795;SDS011;40693;43.884;20.340;2023-06-05T00:21:14;8.80;;;6.73;;
54795;SDS011;40693;43.884;20.340;2023-06-05T00:23:42;8.73;;;6.55;;
54795;SDS011;40693;43.884;20.340;2023-06-05T00:26:08;10.07;;;5.95;;
54795;SDS011;40693;43.884;20.340;2023-06-05T00:28:34;8.68;;;6.13;;
54795;SDS011;40693;43.884;20.340;2023-06-05T00:31:00;8.27;;;6.67;;
54795;SDS011;40693;43.884;20.340;2023-06-05T00:33:26;11.10;;;6.78;;
54795;SDS011;40693;43.884;20.340;2023-06-05T00:35:55;8.20;;;6.45;;
54795;SDS011;40693;43.884;20.340;2023-06-05T00:38:20;7.55;;;6.47;;
54795;SDS011;40693;43.884;20.340;2023-06-05T00:40:46;9.30;;;6.85;;
54795;SDS011;40693;43.884;20.340;2023-06-05T00:43:12;8.37;;;6.93;;
54795;SDS011;40693;43.884;20.340;2023-06-05T00:45:37;9.50;;;6.57;;
54795;SDS011;40693;43.884;20.340;2023-06-05T00:48:03;8.10;;;6.23;;
54795;SDS011;40693;43.884;20.340;2023-06-05T00:50:31;7.32;;;6.45;;
54795;SDS011;40693;43.884;20.340;2023-06-05T00:52:57;8.00;;;6.20;;
54795;SDS011;40693;43.884;20.340;2023-06-05T00:55:26;7.50;;;5.73;;
54795;SDS011;40693;43.884;20.340;2023-06-05T00:57:52;8.23;;;6.38;;
54795;SDS011;40693;43.884;20.340;2023-06-05T01:00:19;8.38;;;6.50;;
54795;SDS011;40693;43.884;20.340;2023-06-05T01:02:45;11.30;;;7.22;;
54795;SDS011;40693;43.884;20.340;2023-06-05T01:05:11;11.48;;;7.70;;
54795;SDS011;40693;43.884;20.340;2023-06-05T01:07:38;8.88;;;6.63;;
54795;SDS011;40693;43.884;20.340;2023-06-05T01:10:05;8.35;;;6.43;;
54795;SDS011;40693;43.884;20.340;2023-06-05T01:12:35;9.68;;;7.13;;
54795;SDS011;40693;43.884;20.340;2023-06-05T01:15:06;8.38;;;6.65;;
54795;SDS011;40693;43.884;20.340;2023-06-05T01:17:33;8.57;;;6.95;;
54795;SDS011;40693;43.884;20.340;2023-06-05T01:20:00;8.55;;;6.53;;
54795;SDS011;40693;43.884;20.340;2023-06-05T01:22:32;8.45;;;7.13;;
54795;SDS011;40693;43.884;20.340;2023-06-05T01:24:57;7.13;;;6.20;;
54795;SDS011;40693;43.884;20.340;2023-06-05T01:30:07;8.85;;;6.65;;
54795;SDS011;40693;43.884;20.340;2023-06-05T01:32:52;8.18;;;7.35;;
54795;SDS011;40693;43.884;20.340;2023-06-05T01:35:22;10.27;;;7.07;;
54795;SDS011;40693;43.884;20.340;2023-06-05T01:37:53;11.77;;;7.80;;
54795;SDS011;40693;43.884;20.340;2023-06-05T01:40:21;9.07;;;7.53;;
54795;SDS011;40693;43.884;20.340;2023-06-05T01:42:48;8.55;;;7.00;;
54795;SDS011;40693;43.884;20.340;2023-06-05T01:45:16;12.85;;;7.55;;
54795;SDS011;40693;43.884;20.340;2023-06-05T01:47:42;8.90;;;7.20;;
54795;SDS011;40693;43.884;20.340;2023-06-05T01:50:09;8.87;;;7.27;;
54795;SDS011;40693;43.884;20.340;2023-06-05T01:52:38;10.88;;;6.85;;
54795;SDS011;40693;43.884;20.340;2023-06-05T01:55:13;8.73;;;6.53;;
54795;SDS011;40693;43.884;20.340;2023-06-05T01:57:45;9.30;;;7.50;;
54795;SDS011;40693;43.884;20.340;2023-06-05T02:00:11;9.65;;;7.45;;
54795;SDS011;40693;43.884;20.340;2023-06-05T02:02:43;9.88;;;7.40;;
54795;SDS011;40693;43.884;20.340;2023-06-05T02:05:13;9.20;;;7.45;;
54795;SDS011;40693;43.884;20.340;2023-06-05T02:07:40;10.57;;;7.65;;
54795;SDS011;40693;43.884;20.340;2023-06-05T02:10:09;13.30;;;7.40;;
54795;SDS011;40693;43.884;20.340;2023-06-05T02:12:35;11.20;;;7.95;;
54795;SDS011;40693;43.884;20.340;2023-06-05T02:15:02;14.50;;;7.95;;
54795;SDS011;40693;43.884;20.340;2023-06-05T02:17:29;12.10;;;8.75;;
54795;SDS011;40693;43.884;20.340;2023-06-05T02:19:55;11.07;;;8.50;;
54795;SDS011;40693;43.884;20.340;2023-06-05T02:22:21;10.07;;;8.40;;
54795;SDS011;40693;43.884;20.340;2023-06-05T02:24:48;10.67;;;8.37;;
54795;SDS011;40693;43.884;20.340;2023-06-05T02:27:17;9.10;;;8.10;;
54795;SDS011;40693;43.884;20.340;2023-06-05T02:29:43;10.35;;;9.00;;
54795;SDS011;40693;43.884;20.340;2023-06-05T02:32:08;9.48;;;7.95;;
54795;SDS011;40693;43.884;20.340;2023-06-05T02:34:35;9.93;;;8.80;;
54795;SDS011;40693;43.884;20.340;2023-06-05T02:37:01;9.18;;;8.27;;
54795;SDS011;40693;43.884;20.340;2023-06-05T02:39:27;9.30;;;8.32;;
54795;SDS011;40693;43.884;20.340;2023-06-05T02:41:54;12.35;;;9.98;;
54795;SDS011;40693;43.884;20.340;2023-06-05T02:44:22;9.80;;;8.57;;
54795;SDS011;40693;43.884;20.340;2023-06-05T02:46:47;10.50;;;8.97;;
54795;SDS011;40693;43.884;20.340;2023-06-05T02:49:13;9.90;;;8.83;;
54795;SDS011;40693;43.884;20.340;2023-06-05T02:51:39;10.27;;;8.97;;
54795;SDS011;40693;43.884;20.340;2023-06-05T02:54:05;12.52;;;9.48;;
54795;SDS011;40693;43.884;20.340;2023-06-05T02:56:31;10.25;;;8.05;;
54795;SDS011;40693;43.884;20.340;2023-06-05T02:58:57;10.27;;;9.15;;
54795;SDS011;40693;43.884;20.340;2023-06-05T03:01:23;9.75;;;8.43;;
54795;SDS011;40693;43.884;20.340;2023-06-05T03:03:50;10.77;;;8.43;;
54795;SDS011;40693;43.884;20.340;2023-06-05T03:06:18;9.93;;;8.30;;
54795;SDS011;40693;43.884;20.340;2023-06-05T03:08:44;12.02;;;8.80;;
54795;SDS011;40693;43.884;20.340;2023-06-05T03:11:10;10.20;;;8.38;;
54795;SDS011;40693;43.884;20.340;2023-06-05T03:13:35;10.40;;;8.45;;
54795;SDS011;40693;43.884;20.340;2023-06-05T03:16:01;9.95;;;8.27;;
54795;SDS011;40693;43.884;20.340;2023-06-05T03:18:27;10.05;;;8.18;;
54795;SDS011;40693;43.884;20.340;2023-06-05T03:20:54;10.15;;;8.10;;
54795;SDS011;40693;43.884;20.340;2023-06-05T03:23:27;10.68;;;9.02;;
54795;SDS011;40693;43.884;20.340;2023-06-05T03:25:54;12.98;;;9.50;;
54795;SDS011;40693;43.884;20.340;2023-06-05T03:28:21;9.73;;;8.73;;
54795;SDS011;40693;43.884;20.340;2023-06-05T03:30:47;12.30;;;9.07;;
54795;SDS011;40693;43.884;20.340;2023-06-05T03:33:13;14.37;;;9.17;;
54795;SDS011;40693;43.884;20.340;2023-06-05T03:35:40;11.52;;;8.63;;
54795;SDS011;40693;43.884;20.340;2023-06-05T03:38:07;10.98;;;8.52;;
54795;SDS011;40693;43.884;20.340;2023-06-05T03:40:34;11.00;;;9.02;;
54795;SDS011;40693;43.884;20.340;2023-06-05T03:43:00;13.57;;;9.23;;
54795;SDS011;40693;43.884;20.340;2023-06-05T03:45:26;12.98;;;9.32;;
54795;SDS011;40693;43.884;20.340;2023-06-05T03:47:52;10.63;;;8.65;;
54795;SDS011;40693;43.884;20.340;2023-06-05T03:50:20;16.02;;;10.10;;
54795;SDS011;40693;43.884;20.340;2023-06-05T03:52:46;10.68;;;9.27;;
54795;SDS011;40693;43.884;20.340;2023-06-05T03:55:19;9.15;;;7.75;;
54795;SDS011;40693;43.884;20.340;2023-06-05T03:57:46;10.98;;;7.70;;
54795;SDS011;40693;43.884;20.340;2023-06-05T04:00:13;10.48;;;8.02;;
54795;SDS011;40693;43.884;20.340;2023-06-05T04:02:40;9.07;;;7.97;;
54795;SDS011;40693;43.884;20.340;2023-06-05T04:05:07;11.73;;;7.90;;
54795;SDS011;40693;43.884;20.340;2023-06-05T04:07:36;10.80;;;8.85;;
54795;SDS011;40693;43.884;20.340;2023-06-05T04:10:02;10.00;;;8.95;;
54795;SDS011;40693;43.884;20.340;2023-06-05T04:12:29;9.83;;;8.50;;
54795;SDS011;40693;43.884;20.340;2023-06-05T04:14:55;9.73;;;8.03;;
54795;SDS011;40693;43.884;20.340;2023-06-05T04:17:20;9.55;;;8.13;;
54795;SDS011;40693;43.884;20.340;2023-06-05T04:19:46;12.07;;;9.68;;
54795;SDS011;40693;43.884;20.340;2023-06-05T04:22:12;11.05;;;8.77;;
54795;SDS011;40693;43.884;20.340;2023-06-05T04:24:37;11.23;;;8.82;;
54795;SDS011;40693;43.884;20.340;2023-06-05T04:27:04;10.55;;;8.40;;
54795;SDS011;40693;43.884;20.340;2023-06-05T04:29:30;9.77;;;8.50;;
54795;SDS011;40693;43.884;20.340;2023-06-05T04:31:57;9.88;;;8.18;;
54795;SDS011;40693;43.884;20.340;2023-06-05T04:34:23;9.43;;;8.38;;
54795;SDS011;40693;43.884;20.340;2023-06-05T04:36:49;11.70;;;9.00;;
54795;SDS011;40693;43.884;20.340;2023-06-05T04:39:16;11.27;;;8.38;;
54795;SDS011;40693;43.884;20.340;2023-06-05T04:41:43;9.45;;;7.32;;
54795;SDS011;40693;43.884;20.340;2023-06-05T04:44:13;9.73;;;8.35;;
54795;SDS011;40693;43.884;20.340;2023-06-05T04:46:45;9.48;;;7.78;;
54795;SDS011;40693;43.884;20.340;2023-06-05T04:49:13;9.10;;;7.93;;
54795;SDS011;40693;43.884;20.340;2023-06-05T04:51:40;9.67;;;8.00;;
54795;SDS011;40693;43.884;20.340;2023-06-05T04:54:06;8.98;;;7.95;;
54795;SDS011;40693;43.884;20.340;2023-06-05T04:56:32;10.67;;;8.47;;
54795;SDS011;40693;43.884;20.340;2023-06-05T04:58:59;10.43;;;8.80;;
54795;SDS011;40693;43.884;20.340;2023-06-05T05:01:27;12.48;;;9.30;;
54795;SDS011;40693;43.884;20.340;2023-06-05T05:03:53;13.65;;;10.05;;
54795;SDS011;40693;43.884;20.340;2023-06-05T05:06:19;14.40;;;9.93;;
54795;SDS011;40693;43.884;20.340;2023-06-05T05:08:46;11.55;;;9.13;;
54795;SDS011;40693;43.884;20.340;2023-06-05T05:11:16;10.98;;;9.13;;
54795;SDS011;40693;43.884;20.340;2023-06-05T05:13:42;11.13;;;9.55;;
54795;SDS011;40693;43.884;20.340;2023-06-05T05:16:08;11.30;;;9.40;;
54795;SDS011;40693;43.884;20.340;2023-06-05T05:18:35;13.27;;;9.63;;
54795;SDS011;40693;43.884;20.340;2023-06-05T05:21:02;14.15;;;10.10;;
54795;SDS011;40693;43.884;20.340;2023-06-05T05:23:30;12.98;;;9.77;;
54795;SDS011;40693;43.884;20.340;2023-06-05T05:25:56;13.63;;;10.20;;
54795;SDS011;40693;43.884;20.340;2023-06-05T05:28:22;14.50;;;9.67;;
54795;SDS011;40693;43.884;20.340;2023-06-05T05:30:47;11.88;;;9.50;;
54795;SDS011;40693;43.884;20.340;2023-06-05T05:33:13;12.90;;;9.23;;
54795;SDS011;40693;43.884;20.340;2023-06-05T05:35:39;13.07;;;9.02;;
54795;SDS011;40693;43.884;20.340;2023-06-05T05:38:06;12.85;;;9.93;;
54795;SDS011;40693;43.884;20.340;2023-06-05T05:40:31;11.02;;;9.70;;
54795;SDS011;40693;43.884;20.340;2023-06-05T05:42:57;13.43;;;9.63;;
54795;SDS011;40693;43.884;20.340;2023-06-05T05:45:23;11.97;;;10.47;;
54795;SDS011;40693;43.884;20.340;2023-06-05T05:47:48;12.67;;;9.80;;
54795;SDS011;40693;43.884;20.340;2023-06-05T05:50:14;13.50;;;9.90;;
54795;SDS011;40693;43.884;20.340;2023-06-05T05:52:40;13.90;;;10.73;;
54795;SDS011;40693;43.884;20.340;2023-06-05T05:55:08;14.27;;;10.60;;
54795;SDS011;40693;43.884;20.340;2023-06-05T05:57:33;12.75;;;9.10;;
54795;SDS011;40693;43.884;20.340;2023-06-05T05:59:59;12.75;;;9.63;;
54795;SDS011;40693;43.884;20.340;2023-06-05T06:02:25;13.82;;;9.77;;
54795;SDS011;40693;43.884;20.340;2023-06-05T06:04:51;15.20;;;10.27;;
54795;SDS011;40693;43.884;20.340;2023-06-05T06:07:16;13.00;;;10.10;;
54795;SDS011;40693;43.884;20.340;2023-06-05T06:09:42;14.00;;;10.53;;
54795;SDS011;40693;43.884;20.340;2023-06-05T06:12:09;11.55;;;9.57;;
54795;SDS011;40693;43.884;20.340;2023-06-05T06:14:35;12.68;;;9.50;;
54795;SDS011;40693;43.884;20.340;2023-06-05T06:17:01;12.90;;;9.10;;
54795;SDS011;40693;43.884;20.340;2023-06-05T06:19:29;12.02;;;9.38;;
54795;SDS011;40693;43.884;20.340;2023-06-05T06:21:58;14.60;;;10.02;;
54795;SDS011;40693;43.884;20.340;2023-06-05T06:24:23;13.23;;;8.32;;
54795;SDS011;40693;43.884;20.340;2023-06-05T06:26:49;9.57;;;7.50;;
54795;SDS011;40693;43.884;20.340;2023-06-05T06:29:20;9.43;;;7.10;;
54795;SDS011;40693;43.884;20.340;2023-06-05T06:31:48;9.27;;;7.10;;
54795;SDS011;40693;43.884;20.340;2023-06-05T06:34:15;10.07;;;7.87;;
54795;SDS011;40693;43.884;20.340;2023-06-05T06:36:41;10.52;;;7.63;;
54795;SDS011;40693;43.884;20.340;2023-06-05T06:39:08;9.52;;;7.82;;
54795;SDS011;40693;43.884;20.340;2023-06-05T06:41:38;8.48;;;7.25;;
54795;SDS011;40693;43.884;20.340;2023-06-05T06:44:04;8.98;;;7.32;;
54795;SDS011;40693;43.884;20.340;2023-06-05T06:46:30;11.18;;;8.18;;
54795;SDS011;40693;43.884;20.340;2023-06-05T06:48:56;9.02;;;7.75;;
54795;SDS011;40693;43.884;20.340;2023-06-05T06:51:22;11.90;;;8.35;;
54795;SDS011;40693;43.884;20.340;2023-06-05T06:53:48;11.02;;;8.13;;
54795;SDS011;40693;43.884;20.340;2023-06-05T06:56:14;10.70;;;8.30;;
54795;SDS011;40693;43.884;20.340;2023-06-05T06:58:41;10.52;;;8.20;;
54795;SDS011;40693;43.884;20.340;2023-06-05T07:01:07;11.40;;;8.52;;
54795;SDS011;40693;43.884;20.340;2023-06-05T07:03:34;9.85;;;7.75;;
54795;SDS011;40693;43.884;20.340;2023-06-05T07:06:00;11.48;;;8.07;;
54795;SDS011;40693;43.884;20.340;2023-06-05T07:08:26;11.02;;;7.78;;
54795;SDS011;40693;43.884;20.340;2023-06-05T07:10:52;11.37;;;8.57;;
54795;SDS011;40693;43.884;20.340;2023-06-05T07:13:21;11.35;;;8.40;;
54795;SDS011;40693;43.884;20.340;2023-06-05T07:15:48;12.43;;;8.32;;
54795;SDS011;40693;43.884;20.340;2023-06-05T07:18:14;13.37;;;8.50;;
54795;SDS011;40693;43.884;20.340;2023-06-05T07:20:42;11.73;;;7.78;;
54795;SDS011;40693;43.884;20.340;2023-06-05T07:23:08;16.45;;;9.32;;
54795;SDS011;40693;43.884;20.340;2023-06-05T07:25:33;15.13;;;9.48;;
54795;SDS011;40693;43.884;20.340;2023-06-05T07:27:59;10.77;;;8.30;;
54795;SDS011;40693;43.884;20.340;2023-06-05T07:30:28;9.97;;;8.80;;
54795;SDS011;40693;43.884;20.340;2023-06-05T07:32:54;10.48;;;8.27;;
54795;SDS011;40693;43.884;20.340;2023-06-05T07:35:21;11.80;;;8.73;;
54795;SDS011;40693;43.884;20.340;2023-06-05T07:37:48;9.93;;;8.43;;
54795;SDS011;40693;43.884;20.340;2023-06-05T07:40:14;12.90;;;8.70;;
54795;SDS011;40693;43.884;20.340;2023-06-05T07:42:40;12.70;;;8.27;;
54795;SDS011;40693;43.884;20.340;2023-06-05T07:45:06;13.30;;;8.95;;
54795;SDS011;40693;43.884;20.340;2023-06-05T07:47:35;14.82;;;9.13;;
54795;SDS011;40693;43.884;20.340;2023-06-05T07:50:01;12.07;;;9.30;;
54795;SDS011;40693;43.884;20.340;2023-06-05T07:52:31;13.30;;;9.10;;
54795;SDS011;40693;43.884;20.340;2023-06-05T07:54:58;12.80;;;8.98;;
54795;SDS011;40693;43.884;20.340;2023-06-05T07:57:24;12.68;;;8.30;;
54795;SDS011;40693;43.884;20.340;2023-06-05T07:59:50;10.40;;;8.48;;
54795;SDS011;40693;43.884;20.340;2023-06-05T08:02:19;11.77;;;8.70;;
54795;SDS011;40693;43.884;20.340;2023-06-05T08:04:45;11.10;;;8.63;;
54795;SDS011;40693;43.884;20.340;2023-06-05T08:07:11;11.07;;;8.10;;
54795;SDS011;40693;43.884;20.340;2023-06-05T08:09:37;12.40;;;7.70;;
54795;SDS011;40693;43.884;20.340;2023-06-05T08:12:03;12.75;;;7.85;;
54795;SDS011;40693;43.884;20.340;2023-06-05T08:14:30;10.15;;;7.10;;
54795;SDS011;40693;43.884;20.340;2023-06-05T08:16:56;11.15;;;6.82;;
54795;SDS011;40693;43.884;20.340;2023-06-05T08:19:22;10.82;;;7.63;;
54795;SDS011;40693;43.884;20.340;2023-06-05T08:21:51;10.18;;;7.28;;
54795;SDS011;40693;43.884;20.340;2023-06-05T08:24:19;10.85;;;8.20;;
54795;SDS011;40693;43.884;20.340;2023-06-05T08:26:45;15.63;;;7.82;;
54795;SDS011;40693;43.884;20.340;2023-06-05T08:29:11;12.43;;;7.55;;
54795;SDS011;40693;43.884;20.340;2023-06-05T08:31:37;9.13;;;6.90;;
54795;SDS011;40693;43.884;20.340;2023-06-05T08:34:06;9.63;;;6.55;;
54795;SDS011;40693;43.884;20.340;2023-06-05T08:36:32;8.75;;;6.78;;
54795;SDS011;40693;43.884;20.340;2023-06-05T08:38:59;8.88;;;6.50;;
54795;SDS011;40693;43.884;20.340;2023-06-05T08:41:25;8.75;;;7.20;;
54795;SDS011;40693;43.884;20.340;2023-06-05T08:43:51;8.40;;;6.55;;
54795;SDS011;40693;43.884;20.340;2023-06-05T08:46:17;8.45;;;6.70;;
54795;SDS011;40693;43.884;20.340;2023-06-05T08:48:46;7.82;;;6.70;;
54795;SDS011;40693;43.884;20.340;2023-06-05T08:51:16;10.38;;;7.05;;
54795;SDS011;40693;43.884;20.340;2023-06-05T08:53:46;8.65;;;6.82;;
54795;SDS011;40693;43.884;20.340;2023-06-05T08:56:16;8.88;;;6.53;;
54795;SDS011;40693;43.884;20.340;2023-06-05T08:58:44;6.88;;;6.07;;
54795;SDS011;40693;43.884;20.340;2023-06-05T09:01:11;9.13;;;5.55;;
54795;SDS011;40693;43.884;20.340;2023-06-05T09:03:37;7.88;;;6.68;;
54795;SDS011;40693;43.884;20.340;2023-06-05T09:06:03;7.95;;;6.35;;
54795;SDS011;40693;43.884;20.340;2023-06-05T09:08:32;7.50;;;5.82;;
54795;SDS011;40693;43.884;20.340;2023-06-05T09:13:57;9.60;;;6.07;;
54795;SDS011;40693;43.884;20.340;2023-06-05T09:16:33;9.30;;;6.97;;
54795;SDS011;40693;43.884;20.340;2023-06-05T09:19:04;8.18;;;6.35;;
54795;SDS011;40693;43.884;20.340;2023-06-05T09:21:30;11.13;;;6.47;;
54795;SDS011;40693;43.884;20.340;2023-06-05T09:29:34;9.50;;;7.00;;
54795;SDS011;40693;43.884;20.340;2023-06-05T09:32:05;9.07;;;6.00;;
54795;SDS011;40693;43.884;20.340;2023-06-05T09:34:37;8.40;;;7.13;;
54795;SDS011;40693;43.884;20.340;2023-06-05T09:37:05;9.63;;;7.63;;
54795;SDS011;40693;43.884;20.340;2023-06-05T09:39:35;13.48;;;7.32;;
54795;SDS011;40693;43.884;20.340;2023-06-05T09:42:08;11.05;;;6.85;;
54795;SDS011;40693;43.884;20.340;2023-06-05T09:56:59;10.27;;;7.90;;
54795;SDS011;40693;43.884;20.340;2023-06-05T09:59:30;9.00;;;7.32;;
54795;SDS011;40693;43.884;20.340;2023-06-05T10:01:59;10.30;;;7.65;;
54795;SDS011;40693;43.884;20.340;2023-06-05T10:04:30;10.25;;;7.70;;
54795;SDS011;40693;43.884;20.340;2023-06-05T10:07:11;11.88;;;7.70;;
54795;SDS011;40693;43.884;20.340;2023-06-05T10:09:38;11.45;;;8.88;;
54795;SDS011;40693;43.884;20.340;2023-06-05T10:12:05;11.35;;;9.07;;
54795;SDS011;40693;43.884;20.340;2023-06-05T10:14:32;10.30;;;7.45;;
54795;SDS011;40693;43.884;20.340;2023-06-05T10:17:00;9.75;;;6.95;;
54795;SDS011;40693;43.884;20.340;2023-06-05T10:19:27;11.02;;;8.05;;
54795;SDS011;40693;43.884;20.340;2023-06-05T10:21:53;11.15;;;7.68;;
54795;SDS011;40693;43.884;20.340;2023-06-05T10:32:18;12.25;;;8.32;;
54795;SDS011;40693;43.884;20.340;2023-06-05T10:37:56;12.97;;;9.20;;
54795;SDS011;40693;43.884;20.340;2023-06-05T10:40:45;9.95;;;8.05;;
54795;SDS011;40693;43.884;20.340;2023-06-05T10:54:12;10.95;;;7.80;;
54795;SDS011;40693;43.884;20.340;2023-06-05T10:59:17;9.18;;;7.65;;
54795;SDS011;40693;43.884;20.340;2023-06-05T11:02:29;11.15;;;7.93;;
54795;SDS011;40693;43.884;20.340;2023-06-05T11:07:22;12.02;;;7.93;;
54795;SDS011;40693;43.884;20.340;2023-06-05T11:13:12;11.18;;;7.75;;
54795;SDS011;40693;43.884;20.340;2023-06-05T11:17:47;11.10;;;8.02;;
54795;SDS011;40693;43.884;20.340;2023-06-05T11:23:14;13.80;;;7.82;;
54795;SDS011;40693;43.884;20.340;2023-06-05T11:25:40;11.95;;;7.63;;
54795;SDS011;40693;43.884;20.340;2023-06-05T11:28:06;12.02;;;7.93;;
54795;SDS011;40693;43.884;20.340;2023-06-05T11:30:42;9.00;;;7.53;;
54795;SDS011;40693;43.884;20.340;2023-06-05T11:33:09;10.07;;;7.40;;
54795;SDS011;40693;43.884;20.340;2023-06-05T11:35:37;10.65;;;7.13;;
54795;SDS011;40693;43.884;20.340;2023-06-05T11:38:08;10.15;;;7.50;;
54795;SDS011;40693;43.884;20.340;2023-06-05T11:40:37;11.70;;;8.10;;
54795;SDS011;40693;43.884;20.340;2023-06-05T11:43:04;9.07;;;7.82;;
54795;SDS011;40693;43.884;20.340;2023-06-05T11:45:35;9.20;;;7.05;;
54795;SDS011;40693;43.884;20.340;2023-06-05T11:50:37;11.35;;;7.93;;
54795;SDS011;40693;43.884;20.340;2023-06-05T11:53:08;9.13;;;8.23;;
54795;SDS011;40693;43.884;20.340;2023-06-05T11:55:35;10.25;;;6.65;;
54795;SDS011;40693;43.884;20.340;2023-06-05T11:58:26;9.68;;;7.35;;
54795;SDS011;40693;43.884;20.340;2023-06-05T12:01:04;9.57;;;8.23;;
54795;SDS011;40693;43.884;20.340;2023-06-05T12:03:43;15.13;;;7.57;;
54795;SDS011;40693;43.884;20.340;2023-06-05T12:06:10;7.90;;;7.07;;
54795;SDS011;40693;43.884;20.340;2023-06-05T12:08:41;10.40;;;7.80;;
54795;SDS011;40693;43.884;20.340;2023-06-05T12:11:20;10.50;;;7.43;;
54795;SDS011;40693;43.884;20.340;2023-06-05T12:13:52;8.43;;;6.95;;
54795;SDS011;40693;43.884;20.340;2023-06-05T12:16:19;7.40;;;6.57;;
54795;SDS011;40693;43.884;20.340;2023-06-05T12:18:55;12.18;;;8.25;;
54795;SDS011;40693;43.884;20.340;2023-06-05T12:21:22;9.43;;;8.45;;
54795;SDS011;40693;43.884;20.340;2023-06-05T12:23:49;11.80;;;8.15;;
54795;SDS011;40693;43.884;20.340;2023-06-05T12:26:15;8.93;;;7.10;;
54795;SDS011;40693;43.884;20.340;2023-06-05T12:28:42;9.40;;;7.57;;
54795;SDS011;40693;43.884;20.340;2023-06-05T12:31:09;8.80;;;7.90;;
54795;SDS011;40693;43.884;20.340;2023-06-05T12:33:45;11.23;;;6.60;;
54795;SDS011;40693;43.884;20.340;2023-06-05T12:36:14;14.90;;;7.35;;
54795;SDS011;40693;43.884;20.340;2023-06-05T12:38:41;9.80;;;7.63;;
54795;SDS011;40693;43.884;20.340;2023-06-05T12:41:08;14.32;;;7.75;;
54795;SDS011;40693;43.884;20.340;2023-06-05T12:43:34;10.68;;;8.05;;
54795;SDS011;40693;43.884;20.340;2023-06-05T12:46:00;10.45;;;7.18;;
54795;SDS011;40693;43.884;20.340;2023-06-05T12:48:27;8.63;;;7.70;;
54795;SDS011;40693;43.884;20.340;2023-06-05T12:50:52;13.20;;;8.07;;
54795;SDS011;40693;43.884;20.340;2023-06-05T12:53:19;10.68;;;7.07;;
54795;SDS011;40693;43.884;20.340;2023-06-05T12:55:45;8.85;;;7.60;;
54795;SDS011;40693;43.884;20.340;2023-06-05T12:58:11;14.98;;;8.27;;
54795;SDS011;40693;43.884;20.340;2023-06-05T13:00:37;13.98;;;8.10;;
54795;SDS011;40693;43.884;20.340;2023-06-05T13:03:03;10.38;;;7.25;;
54795;SDS011;40693;43.884;20.340;2023-06-05T13:05:32;10.50;;;6.90;;
54795;SDS011;40693;43.884;20.340;2023-06-05T13:07:58;12.98;;;7.40;;
54795;SDS011;40693;43.884;20.340;2023-06-05T13:10:24;11.05;;;6.65;;
54795;SDS011;40693;43.884;20.340;2023-06-05T13:12:50;8.30;;;7.15;;
54795;SDS011;40693;43.884;20.340;2023-06-05T13:15:15;9.82;;;7.63;;
54795;SDS011;40693;43.884;20.340;2023-06-05T13:17:41;9.00;;;7.10;;
54795;SDS011;40693;43.884;20.340;2023-06-05T13:20:11;11.15;;;7.38;;
54795;SDS011;40693;43.884;20.340;2023-06-05T13:22:38;8.25;;;6.53;;
54795;SDS011;40693;43.884;20.340;2023-06-05T13:25:06;9.20;;;6.78;;
54795;SDS011;40693;43.884;20.340;2023-06-05T13:27:33;12.07;;;7.85;;
54795;SDS011;40693;43.884;20.340;2023-06-05T13:29:59;10.55;;;8.43;;
54795;SDS011;40693;43.884;20.340;2023-06-05T13:32:25;11.57;;;8.32;;
54795;SDS011;40693;43.884;20.340;2023-06-05T13:34:51;12.95;;;7.65;;
54795;SDS011;40693;43.884;20.340;2023-06-05T13:37:18;9.95;;;7.53;;
54795;SDS011;40693;43.884;20.340;2023-06-05T13:39:45;9.82;;;7.88;;
54795;SDS011;40693;43.884;20.340;2023-06-05T13:42:14;11.63;;;8.63;;
54795;SDS011;40693;43.884;20.340;2023-06-05T13:44:43;12.13;;;8.23;;
54795;SDS011;40693;43.884;20.340;2023-06-05T13:47:10;9.18;;;7.18;;
54795;SDS011;40693;43.884;20.340;2023-06-05T13:49:41;9.23;;;7.30;;
54795;SDS011;40693;43.884;20.340;2023-06-05T13:52:07;8.55;;;7.55;;
54795;SDS011;40693;43.884;20.340;2023-06-05T13:54:32;9.85;;;7.93;;
54795;SDS011;40693;43.884;20.340;2023-06-05T13:56:58;8.77;;;7.65;;
54795;SDS011;40693;43.884;20.340;2023-06-05T13:59:24;9.63;;;7.88;;
54795;SDS011;40693;43.884;20.340;2023-06-05T14:01:50;10.25;;;8.30;;
54795;SDS011;40693;43.884;20.340;2023-06-05T14:04:16;10.48;;;8.13;;
54795;SDS011;40693;43.884;20.340;2023-06-05T14:06:42;8.88;;;7.38;;
54795;SDS011;40693;43.884;20.340;2023-06-05T14:09:08;9.95;;;7.63;;
54795;SDS011;40693;43.884;20.340;2023-06-05T14:11:33;10.98;;;7.65;;
54795;SDS011;40693;43.884;20.340;2023-06-05T14:13:59;10.50;;;8.15;;
54795;SDS011;40693;43.884;20.340;2023-06-05T14:16:26;9.13;;;7.97;;
54795;SDS011;40693;43.884;20.340;2023-06-05T14:18:52;12.40;;;8.07;;
54795;SDS011;40693;43.884;20.340;2023-06-05T14:21:18;12.82;;;9.50;;
54795;SDS011;40693;43.884;20.340;2023-06-05T14:23:43;11.50;;;8.18;;
54795;SDS011;40693;43.884;20.340;2023-06-05T14:26:09;10.65;;;8.75;;
54795;SDS011;40693;43.884;20.340;2023-06-05T14:28:36;11.20;;;8.05;;
54795;SDS011;40693;43.884;20.340;2023-06-05T14:31:01;12.93;;;7.65;;
54795;SDS011;40693;43.884;20.340;2023-06-05T14:33:27;9.55;;;7.57;;
54795;SDS011;40693;43.884;20.340;2023-06-05T14:35:53;10.02;;;7.60;;
54795;SDS011;40693;43.884;20.340;2023-06-05T14:38:19;10.38;;;7.45;;
54795;SDS011;40693;43.884;20.340;2023-06-05T14:40:45;12.27;;;8.05;;
54795;SDS011;40693;43.884;20.340;2023-06-05T14:43:15;8.43;;;7.55;;
54795;SDS011;40693;43.884;20.340;2023-06-05T14:45:41;11.40;;;7.60;;
54795;SDS011;40693;43.884;20.340;2023-06-05T14:48:07;8.95;;;7.07;;
54795;SDS011;40693;43.884;20.340;2023-06-05T14:50:35;8.50;;;7.57;;
54795;SDS011;40693;43.884;20.340;2023-06-05T14:53:01;9.68;;;8.43;;
54795;SDS011;40693;43.884;20.340;2023-06-05T14:55:27;12.55;;;8.38;;
54795;SDS011;40693;43.884;20.340;2023-06-05T14:57:55;9.18;;;7.57;;
54795;SDS011;40693;43.884;20.340;2023-06-05T15:00:21;12.00;;;7.60;;
54795;SDS011;40693;43.884;20.340;2023-06-05T15:02:47;9.45;;;6.95;;
54795;SDS011;40693;43.884;20.340;2023-06-05T15:05:13;13.23;;;7.47;;
54795;SDS011;40693;43.884;20.340;2023-06-05T15:07:40;10.65;;;6.95;;
54795;SDS011;40693;43.884;20.340;2023-06-05T15:10:07;8.70;;;7.18;;
54795;SDS011;40693;43.884;20.340;2023-06-05T15:12:34;11.43;;;8.00;;
54795;SDS011;40693;43.884;20.340;2023-06-05T15:15:00;11.18;;;9.07;;
54795;SDS011;40693;43.884;20.340;2023-06-05T15:17:26;10.55;;;8.27;;
54795;SDS011;40693;43.884;20.340;2023-06-05T15:19:52;10.98;;;7.57;;
54795;SDS011;40693;43.884;20.340;2023-06-05T15:22:18;10.40;;;8.50;;
54795;SDS011;40693;43.884;20.340;2023-06-05T15:24:44;11.27;;;10.15;;
54795;SDS011;40693;43.884;20.340;2023-06-05T15:27:11;12.93;;;8.38;;
54795;SDS011;40693;43.884;20.340;2023-06-05T15:29:37;13.98;;;9.40;;